createdAt,value
2018-11-23T00:00:21.424Z,98.50
2018-11-23T00:01:21.447Z,97.10
2018-11-23T00:02:21.471Z,95.10
2018-11-23T00:03:21.493Z,92.60
2018-11-23T00:04:21.517Z,100.10
2018-11-23T00:05:21.543Z,97.90
2018-11-23T00:06:21.563Z,96.60
2018-11-23T00:07:21.586Z,90.40
2018-11-23T00:08:21.611Z,87.10
2018-11-23T00:09:21.632Z,93.90
2018-11-23T00:10:21.657Z,93.00
2018-11-23T00:11:21.680Z,91.30
2018-11-23T00:12:21.704Z,98.80
2018-11-23T00:13:21.727Z,108.10
2018-11-23T00:14:21.750Z,93.40
2018-11-23T00:15:21.772Z,95.60
2018-11-23T00:16:21.797Z,83.60
2018-11-23T00:17:21.822Z,93.20
2018-11-23T00:18:21.844Z,93.00
2018-11-23T00:19:21.866Z,88.60
2018-11-23T00:20:21.893Z,95.40
2018-11-23T00:21:21.912Z,95.70
2018-11-23T00:22:21.939Z,98.90
2018-11-23T00:23:21.958Z,91.00
2018-11-23T00:24:21.983Z,97.40
2018-11-23T00:25:22.006Z,103.80
2018-11-23T00:26:22.033Z,98.80
2018-11-23T00:27:22.051Z,103.70
2018-11-23T00:28:22.075Z,101.70
2018-11-23T00:29:22.099Z,101.30
2018-11-23T00:30:22.123Z,92.70
2018-11-23T00:31:22.145Z,94.10
2018-11-23T00:32:22.168Z,91.70
2018-11-23T00:33:22.192Z,90.80
2018-11-23T00:34:22.215Z,89.90
2018-11-23T00:35:22.240Z,89.30
2018-11-23T00:36:22.261Z,92.00
2018-11-23T00:37:22.284Z,95.90
2018-11-23T00:38:22.309Z,95.30
2018-11-23T00:39:22.332Z,95.20
2018-11-23T00:40:22.353Z,101.50
2018-11-23T00:41:22.379Z,92.10
2018-11-23T00:42:22.401Z,91.00
2018-11-23T00:43:22.423Z,89.70
2018-11-23T00:44:22.447Z,91.70
2018-11-23T00:45:22.472Z,96.00
2018-11-23T00:46:22.494Z,86.10
2018-11-23T00:47:22.517Z,96.50
2018-11-23T00:48:22.540Z,88.70
2018-11-23T00:49:22.563Z,96.30
2018-11-23T00:50:22.586Z,88.80
2018-11-23T00:51:22.609Z,91.60
2018-11-23T00:52:22.632Z,89.90
2018-11-23T00:53:22.655Z,92.00
2018-11-23T00:54:22.679Z,93.70
2018-11-23T00:55:22.701Z,91.60
2018-11-23T00:56:22.726Z,84.50
2018-11-23T00:57:22.748Z,93.00
2018-11-23T00:58:22.772Z,88.60
2018-11-23T00:59:22.801Z,87.10
2018-11-23T01:00:22.820Z,87.00
2018-11-23T01:01:22.842Z,93.10
2018-11-23T01:02:22.865Z,80.80
2018-11-23T01:03:22.889Z,83.90
2018-11-23T01:04:22.914Z,93.60
2018-11-23T01:05:22.940Z,89.00
2018-11-23T01:06:22.960Z,84.60
2018-11-23T01:07:22.984Z,87.60
2018-11-23T01:08:23.005Z,84.40
2018-11-23T01:09:23.029Z,89.60
2018-11-23T01:10:23.052Z,87.70
2018-11-23T01:11:23.074Z,82.20
2018-11-23T01:12:23.097Z,79.90
2018-11-23T01:13:23.126Z,92.70
2018-11-23T01:14:23.145Z,86.60
2018-11-23T01:15:23.170Z,83.50
2018-11-23T01:16:23.193Z,86.70
2018-11-23T01:17:23.219Z,83.60
2018-11-23T01:18:23.240Z,82.00
2018-11-23T01:19:23.267Z,86.60
2018-11-23T01:20:23.286Z,86.50
2018-11-23T01:21:23.310Z,84.10
2018-11-23T01:22:23.332Z,84.20
2018-11-23T01:23:23.356Z,75.40
2018-11-23T01:24:23.378Z,81.60
2018-11-23T01:25:23.402Z,87.10
2018-11-23T01:26:23.427Z,93.80
2018-11-23T01:27:23.447Z,82.40
2018-11-23T01:28:23.473Z,88.10
2018-11-23T01:29:23.495Z,80.90
2018-11-23T01:30:23.519Z,74.20
2018-11-23T01:31:23.541Z,83.50
2018-11-23T01:32:23.566Z,76.90
2018-11-23T01:33:23.594Z,80.80
2018-11-23T01:34:23.612Z,80.50
2018-11-23T01:35:23.635Z,79.70
2018-11-23T01:36:23.659Z,79.40
2018-11-23T01:37:23.683Z,69.40
2018-11-23T01:38:23.705Z,71.70
2018-11-23T01:39:23.727Z,75.50
2018-11-23T01:40:23.751Z,69.60
2018-11-23T01:41:23.774Z,68.80
2018-11-23T01:42:23.799Z,69.20
2018-11-23T01:43:23.820Z,73.10
2018-11-23T01:44:23.844Z,72.30
2018-11-23T01:45:23.867Z,71.80
2018-11-23T01:46:23.892Z,73.50
2018-11-23T01:47:23.923Z,69.80
2018-11-23T01:48:23.939Z,70.50
2018-11-23T01:49:23.961Z,67.90
2018-11-23T01:50:23.984Z,80.40
2018-11-23T01:51:24.008Z,83.50
2018-11-23T01:52:24.029Z,83.20
2018-11-23T01:53:24.054Z,83.90
2018-11-23T01:54:24.076Z,85.50
2018-11-23T01:55:24.099Z,86.90
2018-11-23T01:56:24.121Z,89.20
2018-11-23T01:57:24.148Z,79.60
2018-11-23T01:58:24.172Z,87.10
2018-11-23T01:59:24.197Z,79.20
2018-11-23T02:00:24.216Z,83.50
2018-11-23T02:01:24.237Z,85.20
2018-11-23T02:02:24.262Z,83.90
2018-11-23T02:03:24.284Z,89.40
2018-11-23T02:04:24.331Z,87.40
2018-11-23T02:05:24.330Z,80.80
2018-11-23T02:06:24.355Z,88.20
2018-11-23T02:07:24.377Z,87.50
2018-11-23T02:08:24.401Z,85.60
2018-11-23T02:09:24.422Z,90.40
2018-11-23T02:10:24.445Z,93.00
2018-11-23T02:11:24.469Z,78.80
2018-11-23T02:12:24.495Z,83.80
2018-11-23T02:13:24.513Z,88.10
2018-11-23T02:14:24.538Z,83.20
2018-11-23T02:15:24.610Z,84.10
2018-11-23T02:16:24.584Z,80.40
2018-11-23T02:17:24.609Z,80.20
2018-11-23T02:18:24.632Z,80.40
2018-11-23T02:19:24.653Z,73.70
2018-11-23T02:20:24.677Z,80.30
2018-11-23T02:21:24.702Z,77.30
2018-11-23T02:22:24.772Z,75.60
2018-11-23T02:23:24.745Z,80.00
2018-11-23T02:24:24.769Z,74.70
2018-11-23T02:25:24.792Z,80.90
2018-11-23T02:26:24.815Z,76.40
2018-11-23T02:27:24.840Z,76.20
2018-11-23T02:28:24.861Z,75.00
2018-11-23T02:29:24.885Z,77.80
2018-11-23T02:30:24.909Z,73.40
2018-11-23T02:31:24.930Z,74.90
2018-11-23T02:32:24.955Z,71.70
2018-11-23T02:33:24.978Z,71.80
2018-11-23T02:34:25.000Z,73.90
2018-11-23T02:35:25.023Z,76.40
2018-11-23T02:36:25.048Z,70.90
2018-11-23T02:37:25.071Z,70.20
2018-11-23T02:38:25.094Z,71.20
2018-11-23T02:39:25.115Z,73.00
2018-11-23T02:40:25.139Z,75.80
2018-11-23T02:41:25.163Z,64.20
2018-11-23T02:42:25.185Z,74.50
2018-11-23T02:43:25.208Z,66.60
2018-11-23T02:44:25.243Z,70.60
2018-11-23T02:45:25.255Z,68.70
2018-11-23T02:46:25.278Z,64.70
2018-11-23T02:47:25.300Z,62.30
2018-11-23T02:48:25.323Z,66.80
2018-11-23T02:49:25.348Z,69.70
2018-11-23T02:50:25.371Z,69.30
2018-11-23T02:51:25.396Z,68.90
2018-11-23T02:52:25.416Z,68.70
2018-11-23T02:53:25.439Z,71.00
2018-11-23T02:54:25.463Z,70.20
2018-11-23T02:55:25.485Z,69.80
2018-11-23T02:56:25.508Z,76.10
2018-11-23T02:57:25.538Z,71.40
2018-11-23T02:58:25.569Z,73.20
2018-11-23T02:59:25.617Z,76.30
2018-11-23T03:00:25.600Z,80.00
2018-11-23T03:01:25.624Z,75.60
2018-11-23T03:03:25.670Z,72.00
2018-11-23T03:04:25.694Z,72.40
2018-11-23T03:05:25.716Z,70.50
2018-11-23T03:06:25.741Z,72.10
2018-11-23T03:07:25.762Z,68.30
2018-11-23T03:08:25.785Z,72.50
2018-11-23T03:09:25.809Z,72.30
2018-11-23T03:10:25.831Z,83.20
2018-11-23T03:11:25.853Z,70.40
2018-11-23T03:12:25.879Z,75.70
2018-11-23T03:13:25.901Z,70.00
2018-11-23T03:14:25.924Z,69.50
2018-11-23T03:15:25.946Z,69.40
2018-11-23T03:16:25.970Z,69.10
2018-11-23T03:17:25.993Z,64.70
2018-11-23T03:18:26.016Z,71.70
2018-11-23T03:19:26.039Z,71.70
2018-11-23T03:20:26.065Z,75.10
2018-11-23T03:21:26.086Z,72.50
2018-11-23T03:22:26.108Z,77.60
2018-11-23T03:23:26.130Z,66.60
2018-11-23T03:24:26.155Z,72.10
2018-11-23T03:25:26.177Z,70.20
2018-11-23T03:26:26.200Z,74.90
2018-11-23T03:27:26.225Z,66.20
2018-11-23T03:28:26.246Z,66.50
2018-11-23T03:29:26.270Z,67.20
2018-11-23T03:30:26.293Z,62.00
2018-11-23T03:31:26.319Z,58.80
2018-11-23T03:32:26.338Z,61.10
2018-11-23T03:33:26.363Z,64.70
2018-11-23T03:34:26.389Z,58.70
2018-11-23T03:35:26.406Z,61.40
2018-11-23T03:36:26.431Z,71.00
2018-11-23T03:37:26.453Z,61.30
2018-11-23T03:38:26.478Z,59.40
2018-11-23T03:39:26.499Z,71.60
2018-11-23T03:40:26.523Z,65.30
2018-11-23T03:41:26.547Z,69.10
2018-11-23T03:42:26.570Z,64.20
2018-11-23T03:43:26.591Z,66.40
2018-11-23T03:44:26.619Z,58.90
2018-11-23T03:45:26.638Z,67.40
2018-11-23T03:46:26.661Z,71.60
2018-11-23T03:47:26.685Z,62.40
2018-11-23T03:48:26.707Z,63.60
2018-11-23T03:49:26.731Z,58.90
2018-11-23T03:50:26.755Z,66.60
2018-11-23T03:51:26.777Z,64.80
2018-11-23T03:52:26.800Z,60.60
2018-11-23T03:53:26.822Z,61.20
2018-11-23T03:54:26.852Z,67.00
2018-11-23T03:55:26.870Z,62.90
2018-11-23T03:56:26.892Z,63.50
2018-11-23T03:57:26.919Z,62.40
2018-11-23T03:58:26.940Z,62.90
2018-11-23T03:59:26.962Z,60.80
2018-11-23T04:00:26.985Z,63.50
2018-11-23T04:01:27.010Z,64.50
2018-11-23T04:02:27.041Z,58.50
2018-11-23T04:03:27.054Z,58.90
2018-11-23T04:04:27.079Z,55.30
2018-11-23T04:05:27.101Z,62.30
2018-11-23T04:06:27.125Z,67.20
2018-11-23T04:07:27.147Z,61.40
2018-11-23T04:08:27.170Z,65.00
2018-11-23T04:09:27.197Z,57.10
2018-11-23T04:10:27.219Z,63.70
2018-11-23T04:11:27.239Z,70.60
2018-11-23T04:12:27.265Z,57.70
2018-11-23T04:13:27.287Z,67.40
2018-11-23T04:14:27.310Z,72.80
2018-11-23T04:15:27.332Z,65.20
2018-11-23T04:16:27.356Z,63.50
2018-11-23T04:17:27.378Z,64.50
2018-11-23T04:18:27.404Z,59.50
2018-11-23T04:19:27.426Z,61.00
2018-11-23T04:20:27.449Z,55.20
2018-11-23T04:21:27.472Z,52.20
2018-11-23T04:22:27.495Z,55.50
2018-11-23T04:23:27.517Z,51.00
2018-11-23T04:24:27.540Z,54.40
2018-11-23T04:25:27.566Z,59.90
2018-11-23T04:26:27.587Z,55.30
2018-11-23T04:27:27.615Z,51.40
2018-11-23T04:28:27.635Z,50.70
2018-11-23T04:29:27.662Z,53.40
2018-11-23T04:30:27.681Z,53.10
2018-11-23T04:31:27.706Z,59.00
2018-11-23T04:32:27.727Z,55.90
2018-11-23T04:33:27.752Z,59.50
2018-11-23T04:34:27.774Z,59.00
2018-11-23T04:35:27.796Z,61.70
2018-11-23T04:36:27.823Z,57.00
2018-11-23T04:37:27.843Z,62.50
2018-11-23T04:38:27.872Z,69.00
2018-11-23T04:39:27.891Z,69.20
2018-11-23T04:40:27.915Z,67.70
2018-11-23T04:41:27.936Z,69.60
2018-11-23T04:42:27.960Z,77.30
2018-11-23T04:43:27.981Z,62.30
2018-11-23T04:44:28.006Z,65.80
2018-11-23T04:45:28.029Z,64.00
2018-11-23T04:46:28.053Z,67.50
2018-11-23T04:47:28.075Z,57.70
2018-11-23T04:48:28.102Z,65.20
2018-11-23T04:49:28.122Z,65.80
2018-11-23T04:50:28.146Z,54.50
2018-11-23T04:51:28.169Z,55.70
2018-11-23T04:52:28.192Z,59.30
2018-11-23T04:53:28.218Z,56.90
2018-11-23T04:54:28.240Z,60.60
2018-11-23T04:55:28.263Z,62.40
2018-11-23T04:56:28.286Z,62.20
2018-11-23T04:57:28.362Z,59.70
2018-11-23T04:58:28.333Z,62.90
2018-11-23T04:59:28.358Z,59.20
2018-11-23T05:00:28.384Z,64.10
2018-11-23T05:01:28.404Z,58.00
2018-11-23T05:02:28.426Z,60.20
2018-11-23T05:03:28.448Z,61.30
2018-11-23T05:04:28.473Z,59.90
2018-11-23T05:05:28.499Z,61.40
2018-11-23T05:06:28.521Z,58.40
2018-11-23T05:07:28.542Z,53.80
2018-11-23T05:08:28.567Z,59.40
2018-11-23T05:09:28.589Z,67.30
2018-11-23T05:10:28.614Z,57.90
2018-11-23T05:11:28.637Z,61.30
2018-11-23T05:12:28.659Z,62.60
2018-11-23T05:13:28.682Z,54.20
2018-11-23T05:14:28.707Z,56.80
2018-11-23T05:15:28.730Z,57.50
2018-11-23T05:16:28.753Z,56.30
2018-11-23T05:17:28.776Z,50.10
2018-11-23T05:18:28.849Z,51.90
2018-11-23T05:19:28.821Z,59.90
2018-11-23T05:20:28.845Z,56.70
2018-11-23T05:21:28.869Z,57.40
2018-11-23T05:22:28.893Z,56.40
2018-11-23T05:23:28.915Z,61.10
2018-11-23T05:24:28.940Z,55.70
2018-11-23T05:25:28.964Z,57.90
2018-11-23T05:26:28.990Z,57.90
2018-11-23T05:27:29.009Z,55.90
2018-11-23T05:28:29.033Z,51.90
2018-11-23T05:29:29.059Z,51.30
2018-11-23T05:30:29.079Z,55.00
2018-11-23T05:31:29.102Z,60.10
2018-11-23T05:32:29.130Z,56.60
2018-11-23T05:33:29.152Z,60.10
2018-11-23T05:34:29.174Z,57.80
2018-11-23T05:35:29.197Z,57.30
2018-11-23T05:36:29.220Z,63.10
2018-11-23T05:37:29.243Z,58.60
2018-11-23T05:38:29.267Z,59.40
2018-11-23T05:39:29.291Z,60.50
2018-11-23T05:40:29.313Z,58.20
2018-11-23T05:41:29.337Z,63.70
2018-11-23T05:42:29.360Z,63.10
2018-11-23T05:43:29.384Z,56.40
2018-11-23T05:44:29.406Z,61.60
2018-11-23T05:45:29.432Z,52.40
2018-11-23T05:46:29.461Z,58.20
2018-11-23T05:47:29.497Z,57.80
2018-11-23T05:48:29.501Z,54.10
2018-11-23T05:49:29.526Z,53.30
2018-11-23T05:50:29.547Z,59.70
2018-11-23T05:51:29.570Z,65.80
2018-11-23T05:52:29.595Z,60.20
2018-11-23T05:53:29.618Z,60.20
2018-11-23T05:54:29.641Z,57.70
2018-11-23T05:55:29.663Z,55.10
2018-11-23T05:56:29.687Z,65.40
2018-11-23T05:57:29.711Z,63.90
2018-11-23T05:58:29.734Z,67.20
2018-11-23T05:59:29.758Z,64.80
2018-11-23T06:00:29.782Z,57.20
2018-11-23T06:01:29.806Z,55.30
2018-11-23T06:02:29.831Z,58.20
2018-11-23T06:03:29.851Z,54.60
2018-11-23T06:04:29.874Z,54.20
2018-11-23T06:05:29.898Z,64.80
2018-11-23T06:06:29.923Z,54.30
2018-11-23T06:07:29.946Z,57.10
2018-11-23T06:08:29.969Z,55.70
2018-11-23T06:09:29.997Z,59.40
2018-11-23T06:10:30.015Z,56.40
2018-11-23T06:11:30.038Z,58.70
2018-11-23T06:12:30.063Z,59.10
2018-11-23T06:13:30.085Z,57.80
2018-11-23T06:14:30.110Z,58.30
2018-11-23T06:15:30.132Z,53.60
2018-11-23T06:16:30.155Z,59.80
2018-11-23T06:17:30.179Z,59.70
2018-11-23T06:18:30.203Z,60.80
2018-11-23T06:19:30.226Z,57.70
2018-11-23T06:20:30.250Z,49.90
2018-11-23T06:21:30.272Z,53.00
2018-11-23T06:22:30.297Z,53.50
2018-11-23T06:23:30.320Z,55.60
2018-11-23T06:24:32.086Z,59.60
2018-11-23T06:25:30.381Z,64.10
2018-11-23T06:26:30.392Z,58.80
2018-11-23T06:27:30.412Z,57.70
2018-11-23T06:28:30.437Z,64.40
2018-11-23T06:29:30.459Z,70.10
2018-11-23T06:30:30.483Z,65.00
2018-11-23T06:31:30.505Z,72.30
2018-11-23T06:32:30.528Z,66.70
2018-11-23T06:33:30.555Z,68.00
2018-11-23T06:34:30.575Z,63.60
2018-11-23T06:35:30.599Z,65.00
2018-11-23T06:36:30.621Z,58.70
2018-11-23T06:37:30.644Z,63.50
2018-11-23T06:38:30.669Z,51.40
2018-11-23T06:39:30.691Z,62.20
2018-11-23T06:40:30.714Z,62.00
2018-11-23T06:41:30.737Z,61.90
2018-11-23T06:42:30.760Z,61.70
2018-11-23T06:43:30.788Z,61.50
2018-11-23T06:44:30.808Z,54.50
2018-11-23T06:45:30.853Z,47.30
2018-11-23T06:46:30.853Z,49.80
2018-11-23T06:47:30.876Z,60.70
2018-11-23T06:48:30.902Z,60.00
2018-11-23T06:49:30.923Z,63.90
2018-11-23T06:50:30.946Z,67.70
2018-11-23T06:51:30.969Z,55.70
2018-11-23T06:52:30.994Z,63.60
2018-11-23T06:53:31.016Z,55.10
2018-11-23T06:54:31.039Z,60.70
2018-11-23T06:55:31.068Z,67.10
2018-11-23T06:56:31.086Z,67.90
2018-11-23T06:57:31.113Z,67.70
2018-11-23T06:58:31.204Z,65.60
2018-11-23T06:59:31.226Z,66.40
2018-11-23T07:00:31.179Z,64.80
2018-11-23T07:01:31.215Z,65.60
2018-11-23T07:02:31.227Z,64.10
2018-11-23T07:03:31.250Z,62.30
2018-11-23T07:04:31.274Z,62.70
2018-11-23T07:05:31.296Z,67.90
2018-11-23T07:06:31.320Z,68.90
2018-11-23T07:07:31.343Z,62.90
2018-11-23T07:08:31.427Z,65.80
2018-11-23T07:09:31.394Z,66.70
2018-11-23T07:10:31.415Z,60.90
2018-11-23T07:11:31.439Z,57.60
2018-11-23T07:12:31.461Z,63.10
2018-11-23T07:13:31.486Z,63.30
2018-11-23T07:14:31.508Z,64.30
2018-11-23T07:15:31.533Z,75.40
2018-11-23T07:16:31.556Z,63.00
2018-11-23T07:17:31.580Z,76.40
2018-11-23T07:18:31.607Z,65.80
2018-11-23T07:19:31.626Z,72.40
2018-11-23T07:20:31.651Z,59.20
2018-11-23T07:21:31.675Z,60.50
2018-11-23T07:22:31.703Z,60.90
2018-11-23T07:23:31.724Z,65.20
2018-11-23T07:24:31.747Z,60.10
2018-11-23T07:25:31.770Z,59.20
2018-11-23T07:26:31.794Z,59.80
2018-11-23T07:27:31.818Z,63.40
2018-11-23T07:28:31.841Z,64.90
2018-11-23T07:29:31.865Z,60.00
2018-11-23T07:30:31.893Z,66.20
2018-11-23T07:31:31.914Z,68.80
2018-11-23T07:32:31.938Z,68.90
2018-11-23T07:33:31.964Z,63.30
2018-11-23T07:34:31.986Z,65.70
2018-11-23T07:35:32.008Z,70.10
2018-11-23T07:36:32.031Z,63.50
2018-11-23T07:37:32.057Z,69.10
2018-11-23T07:38:32.079Z,77.90
2018-11-23T07:39:32.102Z,72.70
2018-11-23T07:40:32.127Z,89.10
2018-11-23T07:41:32.150Z,104.10
2018-11-23T07:42:32.175Z,107.10
2018-11-23T07:43:32.197Z,116.20
2018-11-23T07:44:32.223Z,109.30
2018-11-23T07:45:32.245Z,105.20
2018-11-23T07:46:32.271Z,107.00
2018-11-23T07:47:32.294Z,100.30
2018-11-23T07:48:32.319Z,98.20
2018-11-23T07:49:32.342Z,116.10
2018-11-23T07:50:32.366Z,112.70
2018-11-23T07:51:38.930Z,101.60
2018-11-23T07:52:32.413Z,97.70
2018-11-23T07:53:32.437Z,97.70
2018-11-23T07:54:32.495Z,93.60
2018-11-23T07:55:32.485Z,109.20
2018-11-23T07:56:32.510Z,134.50
2018-11-23T07:57:32.535Z,138.90
2018-11-23T07:58:32.560Z,105.90
2018-11-23T07:59:32.582Z,107.80
2018-11-23T08:00:32.607Z,116.20
2018-11-23T08:01:32.631Z,103.00
2018-11-23T08:02:32.655Z,104.00
2018-11-23T08:03:32.678Z,105.50
2018-11-23T08:04:32.706Z,92.70
2018-11-23T08:05:32.728Z,126.90
2018-11-23T08:06:32.752Z,139.90
2018-11-23T08:07:32.776Z,129.60
2018-11-23T08:08:32.809Z,130.70
2018-11-23T08:09:32.825Z,145.10
2018-11-23T08:10:32.853Z,152.20
2018-11-23T08:11:32.876Z,138.60
2018-11-23T08:12:32.937Z,146.10
2018-11-23T08:13:32.927Z,179.30
2018-11-23T08:14:32.974Z,159.40
2018-11-23T08:15:32.973Z,150.20
2018-11-23T08:16:32.997Z,150.30
2018-11-23T08:17:33.024Z,143.30
2018-11-23T08:18:33.050Z,138.40
2018-11-23T08:19:33.081Z,181.90
2018-11-23T08:20:33.098Z,147.10
2018-11-23T08:21:33.122Z,148.90
2018-11-23T08:22:33.147Z,143.80
2018-11-23T08:23:33.173Z,141.00
2018-11-23T08:24:33.196Z,161.20
2018-11-23T08:25:33.222Z,149.40
2018-11-23T08:26:33.247Z,171.10
2018-11-23T08:27:33.272Z,148.60
2018-11-23T08:28:33.297Z,176.40
2018-11-23T08:29:33.322Z,186.10
2018-11-23T08:30:33.348Z,135.90
2018-11-23T08:31:33.372Z,115.50
2018-11-23T08:32:33.400Z,145.70
2018-11-23T08:33:33.423Z,150.60
2018-11-23T08:34:33.454Z,127.90
2018-11-23T08:35:33.475Z,134.90
2018-11-23T08:36:33.501Z,110.00
2018-11-23T08:37:33.525Z,119.50
2018-11-23T08:38:33.570Z,135.10
2018-11-23T08:39:33.575Z,120.20
2018-11-23T08:40:33.687Z,147.50
2018-11-23T08:41:33.627Z,147.20
2018-11-23T08:42:33.654Z,145.20
2018-11-23T08:43:33.678Z,196.20
2018-11-23T08:44:33.707Z,162.20
2018-11-23T08:45:33.730Z,132.10
2018-11-23T08:46:33.756Z,99.70
2018-11-23T08:47:33.782Z,112.20
2018-11-23T08:48:33.807Z,102.90
2018-11-23T08:49:33.834Z,96.90
2018-11-23T08:50:33.859Z,107.00
2018-11-23T08:51:33.885Z,91.50
2018-11-23T08:52:33.911Z,91.90
2018-11-23T08:53:33.938Z,89.00
2018-11-23T08:54:33.963Z,84.10
2018-11-23T08:55:33.993Z,78.30
2018-11-23T08:56:34.015Z,95.30
2018-11-23T08:57:34.042Z,94.90
2018-11-23T08:58:34.072Z,101.00
2018-11-23T08:59:34.093Z,123.20
2018-11-23T09:00:34.119Z,140.80
2018-11-23T09:01:34.145Z,142.70
2018-11-23T09:02:34.173Z,156.70
2018-11-23T09:03:34.197Z,155.60
2018-11-23T09:04:34.225Z,141.80
2018-11-23T09:05:34.251Z,173.90
2018-11-23T09:06:34.280Z,152.50
2018-11-23T09:07:34.303Z,164.40
2018-11-23T09:08:34.332Z,160.60
2018-11-23T09:09:34.356Z,134.60
2018-11-23T09:10:34.381Z,149.20
2018-11-23T09:11:34.407Z,143.40
2018-11-23T09:12:34.433Z,139.60
2018-11-23T09:13:34.460Z,144.60
2018-11-23T09:14:34.487Z,156.60
2018-11-23T09:15:34.512Z,150.90
2018-11-23T09:16:34.538Z,133.30
2018-11-23T09:17:34.567Z,120.50
2018-11-23T09:18:34.591Z,132.80
2018-11-23T09:19:34.618Z,137.10
2018-11-23T09:20:34.643Z,120.00
2018-11-23T09:21:34.674Z,110.20
2018-11-23T09:22:34.702Z,120.60
2018-11-23T09:23:34.891Z,99.60
2018-11-23T09:24:34.748Z,146.50
2018-11-23T09:25:34.775Z,144.10
2018-11-23T09:26:34.800Z,126.30
2018-11-23T09:27:34.826Z,139.30
2018-11-23T09:28:34.854Z,125.00
2018-11-23T09:29:34.880Z,103.80
2018-11-23T09:30:34.910Z,122.80
2018-11-23T09:31:34.932Z,146.40
2018-11-23T09:32:34.958Z,128.90
2018-11-23T09:33:34.985Z,149.00
2018-11-23T09:34:35.013Z,112.70
2018-11-23T09:35:35.038Z,135.60
2018-11-23T09:36:35.066Z,122.90
2018-11-23T09:37:35.091Z,104.30
2018-11-23T09:38:35.118Z,122.10
2018-11-23T09:39:35.145Z,127.30
2018-11-23T09:40:35.175Z,120.80
2018-11-23T09:41:35.198Z,127.50
2018-11-23T09:42:35.229Z,112.40
2018-11-23T09:43:35.250Z,115.80
2018-11-23T09:44:35.278Z,128.40
2018-11-23T09:45:35.304Z,135.60
2018-11-23T09:46:35.330Z,133.40
2018-11-23T09:47:35.358Z,131.80
2018-11-23T09:48:35.384Z,123.90
2018-11-23T09:49:35.412Z,131.70
2018-11-23T09:50:35.439Z,123.10
2018-11-23T09:51:35.465Z,130.00
2018-11-23T09:52:35.493Z,104.70
2018-11-23T09:53:35.519Z,118.70
2018-11-23T09:54:35.546Z,108.60
2018-11-23T09:55:35.573Z,114.40
2018-11-23T09:56:35.601Z,116.40
2018-11-23T09:57:35.630Z,110.20
2018-11-23T09:58:35.656Z,77.30
2018-11-23T09:59:35.684Z,106.20
2018-11-23T10:00:35.712Z,109.40
2018-11-23T10:01:35.740Z,98.70
2018-11-23T10:02:35.798Z,88.50
2018-11-23T10:03:35.796Z,88.40
2018-11-23T10:04:35.824Z,95.20
2018-11-23T10:06:35.881Z,93.50
2018-11-23T10:07:35.908Z,96.30
2018-11-23T10:08:37.425Z,82.30
2018-11-23T10:09:35.967Z,106.70
2018-11-23T10:10:35.992Z,98.40
2018-11-23T10:11:36.019Z,93.20
2018-11-23T10:12:36.048Z,97.50
2018-11-23T10:13:36.077Z,108.50
2018-11-23T10:14:36.105Z,123.90
2018-11-23T10:15:36.130Z,100.30
2018-11-23T10:16:36.162Z,96.80
2018-11-23T10:17:36.197Z,111.80
2018-11-23T10:18:36.217Z,94.00
2018-11-23T10:19:36.243Z,91.90
2018-11-23T10:20:36.272Z,90.80
2018-11-23T10:21:36.302Z,84.50
2018-11-23T10:22:36.333Z,76.60
2018-11-23T10:23:36.378Z,87.10
2018-11-23T10:24:36.388Z,73.80
2018-11-23T10:25:36.418Z,70.50
2018-11-23T10:26:36.445Z,79.80
2018-11-23T10:27:36.494Z,68.60
2018-11-23T10:28:36.504Z,77.20
2018-11-23T10:29:36.534Z,80.60
2018-11-23T10:30:36.565Z,64.00
2018-11-23T10:31:36.706Z,60.40
2018-11-23T10:32:36.625Z,58.70
2018-11-23T10:33:36.656Z,49.10
2018-11-23T10:34:36.688Z,59.50
2018-11-23T10:35:36.719Z,51.60
2018-11-23T10:36:36.749Z,49.60
2018-11-23T10:37:36.781Z,59.20
2018-11-23T10:38:36.818Z,59.10
2018-11-23T10:39:36.846Z,42.10
2018-11-23T10:40:36.877Z,43.10
2018-11-23T10:41:36.909Z,45.00
2018-11-23T10:42:36.942Z,43.40
2018-11-23T10:43:36.976Z,46.70
2018-11-23T10:44:37.007Z,56.10
2018-11-23T10:45:37.039Z,54.20
2018-11-23T10:46:37.181Z,71.00
2018-11-23T10:47:37.105Z,43.90
2018-11-23T10:48:37.139Z,50.70
2018-11-23T10:49:37.172Z,45.70
2018-11-23T10:50:37.209Z,42.00
2018-11-23T10:51:37.238Z,51.20
2018-11-23T10:52:37.273Z,40.20
2018-11-23T10:53:37.306Z,47.40
2018-11-23T10:54:37.341Z,52.30
2018-11-23T10:55:37.374Z,46.00
2018-11-23T10:56:37.481Z,49.20
2018-11-23T10:57:37.444Z,51.50
2018-11-23T10:58:37.478Z,47.30
2018-11-23T10:59:37.515Z,50.00
2018-11-23T11:00:37.553Z,44.50
2018-11-23T11:01:37.590Z,43.10
2018-11-23T11:02:37.619Z,42.60
2018-11-23T11:03:37.656Z,40.90
2018-11-23T11:04:37.688Z,34.70
2018-11-23T11:05:37.725Z,37.30
2018-11-23T11:06:37.761Z,36.80
2018-11-23T11:07:41.001Z,38.40
2018-11-23T11:08:37.830Z,49.30
2018-11-23T11:09:37.866Z,42.60
2018-11-23T11:10:37.907Z,43.10
2018-11-23T11:11:37.941Z,38.40
2018-11-23T11:12:37.972Z,39.80
2018-11-23T11:13:38.008Z,44.20
2018-11-23T11:14:38.044Z,43.00
2018-11-23T11:15:38.077Z,45.30
2018-11-23T11:16:38.113Z,39.60
2018-11-23T11:17:38.146Z,56.40
2018-11-23T11:18:38.180Z,46.70
2018-11-23T11:19:38.214Z,57.20
2018-11-23T11:20:38.247Z,46.10
2018-11-23T11:21:38.280Z,54.90
2018-11-23T11:22:38.313Z,64.70
2018-11-23T11:23:38.343Z,73.90
2018-11-23T11:24:38.376Z,56.60
2018-11-23T11:25:38.408Z,58.30
2018-11-23T11:26:38.485Z,61.60
2018-11-23T11:27:38.532Z,67.20
2018-11-23T11:28:38.498Z,73.10
2018-11-23T11:29:38.531Z,69.70
2018-11-23T11:30:38.572Z,76.00
2018-11-23T11:31:38.590Z,81.90
2018-11-23T11:32:38.618Z,86.60
2018-11-23T11:33:38.649Z,70.10
2018-11-23T11:34:38.676Z,68.40
2018-11-23T11:35:38.763Z,76.80
2018-11-23T11:36:38.739Z,85.80
2018-11-23T11:37:38.789Z,82.10
2018-11-23T11:38:38.791Z,86.20
2018-11-23T11:39:38.817Z,79.60
2018-11-23T11:40:38.845Z,91.70
2018-11-23T11:41:38.874Z,93.20
2018-11-23T11:42:38.903Z,87.40
2018-11-23T11:43:38.928Z,85.80
2018-11-23T11:44:38.956Z,80.40
2018-11-23T11:45:39.038Z,89.90
2018-11-23T11:46:39.011Z,84.80
2018-11-23T11:47:39.037Z,86.80
2018-11-23T11:48:39.066Z,81.10
2018-11-23T11:49:39.091Z,94.20
2018-11-23T11:50:39.119Z,86.00
2018-11-23T11:51:39.145Z,103.90
2018-11-23T11:52:39.172Z,102.10
2018-11-23T11:53:39.199Z,94.30
2018-11-23T11:54:39.226Z,106.50
2018-11-23T11:55:39.251Z,97.30
2018-11-23T11:56:39.277Z,118.40
2018-11-23T11:57:39.304Z,94.30
2018-11-23T11:58:39.332Z,104.50
2018-11-23T11:59:39.357Z,119.10
2018-11-23T12:00:39.383Z,116.50
2018-11-23T12:01:39.409Z,133.70
2018-11-23T12:02:39.436Z,125.10
2018-11-23T12:03:39.463Z,101.30
2018-11-23T12:04:39.488Z,98.40
2018-11-23T12:05:39.519Z,114.00
2018-11-23T12:06:39.541Z,106.20
2018-11-23T12:07:39.567Z,99.60
2018-11-23T12:08:39.593Z,113.80
2018-11-23T12:09:39.632Z,102.70
2018-11-23T12:10:39.648Z,119.50
2018-11-23T12:11:39.702Z,98.20
2018-11-23T12:12:39.703Z,113.70
2018-11-23T12:13:39.727Z,112.10
2018-11-23T12:14:39.752Z,114.40
2018-11-23T12:15:39.779Z,101.70
2018-11-23T12:16:39.805Z,119.90
2018-11-23T12:17:39.830Z,116.40
2018-11-23T12:18:39.876Z,90.30
2018-11-23T12:19:39.883Z,122.10
2018-11-23T12:20:39.911Z,115.60
2018-11-23T12:21:39.936Z,101.70
2018-11-23T12:22:39.962Z,121.30
2018-11-23T12:23:39.987Z,96.90
2018-11-23T12:24:40.015Z,90.40
2018-11-23T12:25:40.041Z,92.10
2018-11-23T12:26:40.068Z,89.20
2018-11-23T12:27:40.092Z,91.80
2018-11-23T12:28:40.121Z,102.40
2018-11-23T12:29:40.145Z,98.60
2018-11-23T12:30:40.175Z,97.20
2018-11-23T12:31:40.201Z,91.90
2018-11-23T12:32:40.225Z,90.80
2018-11-23T12:33:40.251Z,80.20
2018-11-23T12:34:40.278Z,92.50
2018-11-23T12:35:40.303Z,79.50
2018-11-23T12:36:40.330Z,83.10
2018-11-23T12:37:40.356Z,102.60
2018-11-23T12:38:43.063Z,99.10
2018-11-23T12:39:40.457Z,107.20
2018-11-23T12:40:40.433Z,98.90
2018-11-23T12:41:40.465Z,84.10
2018-11-23T12:42:40.486Z,80.70
2018-11-23T12:43:40.568Z,92.90
2018-11-23T12:44:40.538Z,82.80
2018-11-23T12:45:40.565Z,92.10
2018-11-23T12:46:40.592Z,99.20
2018-11-23T12:47:40.616Z,92.10
2018-11-23T12:48:40.642Z,102.40
2018-11-23T12:49:40.669Z,83.80